Terminal Aerodrome Forecast
Issued by NWS Chicago, IL

Home | Current Version | Previous Version | Graphics & Text | Print | Product List | Glossary On
Versions: 1 2 3 4 5 6 7 8 9 10 11 12 13 14 15 16 17 18 19 20 21 22 23 24
000
FTUS43 KLOT 021120
TAFRFD
TAF
KRFD 021120Z 0212/0312 02007KT P6SM SCT009 BKN060
      TEMPO 0212/0214 BKN009
     FM021500 06012KT P6SM BKN040
     FM030100 VRB05KT P6SM SCT050 BKN120=

USA.gov is the U.S. government's official web portal to all federal, state and local government web resources and services.